Terminal Aerodrome Forecast
Issued by NWS

Current Version | Previous Version | Graphics & Text | Print | Product List | Glossary On
Versions: 1 2 3 4 5 6 7 8 9 10 11 12 13 14 15 16 17 18 19 20 21 22
287
FTUS41 KPBZ 232339
TAFMGW
TAF
KMGW 232339Z 2400/2424 28005KT P6SM BKN060
     FM241000 00000KT 4SM HZ FEW250=

USA.gov is the U.S. government's official web portal to all federal, state and local government web resources and services.